Naha Airport
ROAH : now visible

Airfield :











YOU CAN JOIN US ON...

 
LOGIN :

Register | Disclaimer

   EN    FR    IT 

 









Legend :    VFR   Marginal VFR   IFR   Intensive IFR   Very Intensive IFR
Visi :
Ceiling :
>= 8 km
>= 3000ft
5 to 8 km
1000 to 3000 ft
1500m to 5 km
500 to 1000 ft
800 to 1500m
200 to 500 ft
< 800m
< 200 ft
Symbols :   Thunderstorms  Fog  Heavy snow  Heavy precipitations  Wind > 20 kt






- Airport Elevation : 12 ft
- IATA code : OKA


ROAH - Naha

CURRENT METAR :
  • 210530Z 08015KT 040V100 6000 -RA FEW008 SCT015 BKN030 22/20 Q1016 RMK 1ST008 4CU015 7SC030 A3003

EXPIRED METARs :
  • 210505Z 08014KT 7000 -RA FEW008 SCT020 BKN035 22/20 Q1016 RMK 1ST008 4CU020 7SC035 A3002
  • 210500Z 08016G27KT 4000 -RA BR FEW008 SCT020 BKN035 22/20 Q1016 RMK 1ST008 4CU020 7SC035 A3003
  • 210430Z 08016G27KT 3000 -RA BR FEW007 SCT015 BKN035 22/21 Q1016
  • 210400Z 08015KT 2500 R36/2000N -RA BR SCT007 SCT015 BKN035 22/20 Q1017 RMK 3ST007 4CU015 7SC035 A3004
  • 210344Z 08015G25KT 040V100 3000 R36/2000N -RA BR SCT006 SCT015 BKN035 22/21 Q1017 RMK 3ST006 4CU015 7SC035 A3005
  • 210330Z 08016KT 4000 R36/2000N -SHRA BR FEW008 SCT015 BKN035 22/20 Q1017
  • 210300Z 07014KT 4000 R36/1600VP2000N -SHRA BR SCT008 SCT013 BKN025 22/21 Q1018 RMK 3ST008 4CU013 5CU025 A3006
  • 210250Z 07016KT 4000 -SHRA BR FEW008 SCT015 BKN045 22/20 Q1018 RMK 2ST008 3CU015 7SC045 A3007
  • 210230Z 08016KT 4000 -SHRA BR FEW008 SCT012 BKN050 22/21 Q1018 RMK 2ST008 4CU012 7SC050 A3007

TAF TAF ROAH
Valid from the 21 at 06:00 until the 22 at 12:00 UTC


210505Z 2106/2212 08015KT 8000 FEW008 BKN015
TEMPO 2106/2112 08019G35KT 4000 -SHRA BR
BECMG 2118/2121 10007KT
TEMPO 2118/2203 4000 SHRA FEW005 BKN010 FEW020CB
BECMG 2203/2206 05012KT
TEMPO 2203/2206 3000 TSRA FEW005 BKN010 SCT020CB



MET'MAP, your aeronautical weather chart ! - Copyright ORBIFLY December 2007 - Disclaimer

ORBIFLY MET'MAP TEAM :

Programming & Development : Alexandra Zaïnal
Concept & Development : Baudouin d'Aumeries
Co-Development & Prog : Marc-Olivier Méhu
Technical & hardware support : Manuel Goepfert

Contact : metmap@orbifly.com




SOURCES & CREDITS :

   NOAA       Earth
Advisory